sensor_id;sensor_type;location;lat;lon;timestamp;pressure;altitude;pressure_sealevel;temperature;humidity
49645;BME280;36494;50.730;-1.932;2023-09-08T00:00:42;101093.92;;;20.22;100.00
49645;BME280;36494;50.730;-1.932;2023-09-08T00:03:07;101087.76;;;20.20;100.00
49645;BME280;36494;50.730;-1.932;2023-09-08T00:05:33;101086.15;;;20.18;100.00
49645;BME280;36494;50.730;-1.932;2023-09-08T00:07:59;101085.26;;;20.15;100.00
49645;BME280;36494;50.730;-1.932;2023-09-08T00:10:24;101084.75;;;20.13;100.00
49645;BME280;36494;50.730;-1.932;2023-09-08T00:12:49;101086.37;;;20.10;100.00
49645;BME280;36494;50.730;-1.932;2023-09-08T00:15:14;101084.22;;;20.08;100.00
49645;BME280;36494;50.730;-1.932;2023-09-08T00:17:40;101082.57;;;20.05;100.00
49645;BME280;36494;50.730;-1.932;2023-09-08T00:20:06;101079.92;;;20.02;100.00
49645;BME280;36494;50.730;-1.932;2023-09-08T00:22:31;101077.86;;;19.99;100.00
49645;BME280;36494;50.730;-1.932;2023-09-08T00:24:57;101078.84;;;19.96;100.00
49645;BME280;36494;50.730;-1.932;2023-09-08T00:27:22;101081.68;;;19.94;100.00
49645;BME280;36494;50.730;-1.932;2023-09-08T00:29:47;101081.61;;;19.92;100.00
49645;BME280;36494;50.730;-1.932;2023-09-08T00:32:12;101078.51;;;19.90;100.00
49645;BME280;36494;50.730;-1.932;2023-09-08T00:34:40;101073.70;;;19.87;100.00
49645;BME280;36494;50.730;-1.932;2023-09-08T00:37:04;101074.17;;;19.85;100.00
49645;BME280;36494;50.730;-1.932;2023-09-08T00:39:29;101073.38;;;19.83;100.00
49645;BME280;36494;50.730;-1.932;2023-09-08T00:41:54;101075.17;;;19.82;100.00
49645;BME280;36494;50.730;-1.932;2023-09-08T00:44:20;101073.47;;;19.80;100.00
49645;BME280;36494;50.730;-1.932;2023-09-08T00:46:45;101073.74;;;19.78;100.00
49645;BME280;36494;50.730;-1.932;2023-09-08T00:49:11;101078.63;;;19.75;100.00
49645;BME280;36494;50.730;-1.932;2023-09-08T00:51:36;101082.43;;;19.73;100.00
49645;BME280;36494;50.730;-1.932;2023-09-08T00:54:01;101086.22;;;19.71;100.00
49645;BME280;36494;50.730;-1.932;2023-09-08T00:56:27;101083.95;;;19.68;100.00
49645;BME280;36494;50.730;-1.932;2023-09-08T00:58:52;101081.31;;;19.66;100.00
49645;BME280;36494;50.730;-1.932;2023-09-08T01:01:17;101080.10;;;19.63;100.00
49645;BME280;36494;50.730;-1.932;2023-09-08T01:03:42;101080.88;;;19.62;100.00
49645;BME280;36494;50.730;-1.932;2023-09-08T01:06:08;101082.75;;;19.60;100.00
49645;BME280;36494;50.730;-1.932;2023-09-08T01:08:34;101082.81;;;19.58;100.00
49645;BME280;36494;50.730;-1.932;2023-09-08T01:10:59;101082.44;;;19.55;100.00
49645;BME280;36494;50.730;-1.932;2023-09-08T01:13:25;101080.69;;;19.53;100.00
49645;BME280;36494;50.730;-1.932;2023-09-08T01:15:50;101078.88;;;19.51;100.00
49645;BME280;36494;50.730;-1.932;2023-09-08T01:18:15;101079.38;;;19.49;100.00
49645;BME280;36494;50.730;-1.932;2023-09-08T01:20:53;101077.98;;;19.47;100.00
49645;BME280;36494;50.730;-1.932;2023-09-08T01:23:17;101073.44;;;19.45;100.00
49645;BME280;36494;50.730;-1.932;2023-09-08T01:25:32;101071.53;;;19.43;100.00
49645;BME280;36494;50.730;-1.932;2023-09-08T01:27:59;101069.70;;;19.41;100.00
49645;BME280;36494;50.730;-1.932;2023-09-08T01:30:24;101069.25;;;19.39;100.00
49645;BME280;36494;50.730;-1.932;2023-09-08T01:32:47;101068.04;;;19.38;100.00
49645;BME280;36494;50.730;-1.932;2023-09-08T01:35:12;101071.28;;;19.36;100.00
49645;BME280;36494;50.730;-1.932;2023-09-08T01:37:40;101070.85;;;19.34;100.00
49645;BME280;36494;50.730;-1.932;2023-09-08T01:40:04;101071.12;;;19.31;100.00
49645;BME280;36494;50.730;-1.932;2023-09-08T01:42:29;101070.16;;;19.29;100.00
49645;BME280;36494;50.730;-1.932;2023-09-08T01:44:54;101066.94;;;19.27;100.00
49645;BME280;36494;50.730;-1.932;2023-09-08T01:47:20;101064.02;;;19.26;100.00
49645;BME280;36494;50.730;-1.932;2023-09-08T01:49:45;101061.56;;;19.23;100.00
49645;BME280;36494;50.730;-1.932;2023-09-08T01:52:10;101059.60;;;19.23;100.00
49645;BME280;36494;50.730;-1.932;2023-09-08T01:54:36;101058.01;;;19.20;100.00
49645;BME280;36494;50.730;-1.932;2023-09-08T01:57:02;101057.79;;;19.19;100.00
49645;BME280;36494;50.730;-1.932;2023-09-08T01:59:27;101058.24;;;19.19;100.00
49645;BME280;36494;50.730;-1.932;2023-09-08T02:01:52;101055.03;;;19.17;100.00
49645;BME280;36494;50.730;-1.932;2023-09-08T02:04:17;101057.80;;;19.15;100.00
49645;BME280;36494;50.730;-1.932;2023-09-08T02:06:43;101060.26;;;19.14;100.00
49645;BME280;36494;50.730;-1.932;2023-09-08T02:09:08;101062.49;;;19.12;100.00
49645;BME280;36494;50.730;-1.932;2023-09-08T02:11:34;101063.80;;;19.10;100.00
49645;BME280;36494;50.730;-1.932;2023-09-08T02:13:59;101058.23;;;19.08;100.00
49645;BME280;36494;50.730;-1.932;2023-09-08T02:16:25;101060.30;;;19.07;100.00
49645;BME280;36494;50.730;-1.932;2023-09-08T02:18:50;101062.23;;;19.06;100.00
49645;BME280;36494;50.730;-1.932;2023-09-08T02:21:16;101063.53;;;19.05;100.00
49645;BME280;36494;50.730;-1.932;2023-09-08T02:23:41;101065.46;;;19.03;100.00
49645;BME280;36494;50.730;-1.932;2023-09-08T02:26:07;101070.69;;;19.03;100.00
49645;BME280;36494;50.730;-1.932;2023-09-08T02:28:32;101071.68;;;19.02;100.00
49645;BME280;36494;50.730;-1.932;2023-09-08T02:30:57;101073.92;;;19.00;100.00
49645;BME280;36494;50.730;-1.932;2023-09-08T02:33:23;101076.14;;;18.99;100.00
49645;BME280;36494;50.730;-1.932;2023-09-08T02:35:49;101076.12;;;18.96;100.00
49645;BME280;36494;50.730;-1.932;2023-09-08T02:38:14;101075.37;;;18.96;100.00
49645;BME280;36494;50.730;-1.932;2023-09-08T02:40:39;101074.13;;;18.95;100.00
49645;BME280;36494;50.730;-1.932;2023-09-08T02:43:05;101072.20;;;18.93;100.00
49645;BME280;36494;50.730;-1.932;2023-09-08T02:45:30;101071.86;;;18.91;100.00
49645;BME280;36494;50.730;-1.932;2023-09-08T02:47:56;101070.10;;;18.90;100.00
49645;BME280;36494;50.730;-1.932;2023-09-08T02:50:21;101070.81;;;18.89;100.00
49645;BME280;36494;50.730;-1.932;2023-09-08T02:52:46;101074.67;;;18.88;100.00
49645;BME280;36494;50.730;-1.932;2023-09-08T02:55:12;101076.81;;;18.87;100.00
49645;BME280;36494;50.730;-1.932;2023-09-08T02:57:37;101075.45;;;18.86;100.00
49645;BME280;36494;50.730;-1.932;2023-09-08T03:00:03;101076.76;;;18.85;100.00
49645;BME280;36494;50.730;-1.932;2023-09-08T03:02:28;101072.48;;;18.84;100.00
49645;BME280;36494;50.730;-1.932;2023-09-08T03:04:53;101073.82;;;18.83;100.00
49645;BME280;36494;50.730;-1.932;2023-09-08T03:07:18;101073.35;;;18.83;100.00
49645;BME280;36494;50.730;-1.932;2023-09-08T03:09:43;101068.55;;;18.82;100.00
49645;BME280;36494;50.730;-1.932;2023-09-08T03:12:08;101065.88;;;18.82;100.00
49645;BME280;36494;50.730;-1.932;2023-09-08T03:14:34;101062.06;;;18.82;100.00
49645;BME280;36494;50.730;-1.932;2023-09-08T03:17:00;101060.09;;;18.81;100.00
49645;BME280;36494;50.730;-1.932;2023-09-08T03:19:25;101060.88;;;18.81;100.00
49645;BME280;36494;50.730;-1.932;2023-09-08T03:21:50;101061.79;;;18.81;100.00
49645;BME280;36494;50.730;-1.932;2023-09-08T03:24:15;101065.44;;;18.80;100.00
49645;BME280;36494;50.730;-1.932;2023-09-08T03:26:41;101062.68;;;18.79;100.00
49645;BME280;36494;50.730;-1.932;2023-09-08T03:29:06;101061.05;;;18.79;100.00
49645;BME280;36494;50.730;-1.932;2023-09-08T03:31:31;101058.02;;;18.79;100.00
49645;BME280;36494;50.730;-1.932;2023-09-08T03:33:56;101057.07;;;18.79;100.00
49645;BME280;36494;50.730;-1.932;2023-09-08T03:36:22;101061.69;;;18.79;100.00
49645;BME280;36494;50.730;-1.932;2023-09-08T03:38:48;101061.80;;;18.78;100.00
49645;BME280;36494;50.730;-1.932;2023-09-08T03:41:14;101060.24;;;18.77;100.00
49645;BME280;36494;50.730;-1.932;2023-09-08T03:43:38;101057.04;;;18.77;100.00
49645;BME280;36494;50.730;-1.932;2023-09-08T03:46:04;101061.69;;;18.76;100.00
49645;BME280;36494;50.730;-1.932;2023-09-08T03:48:30;101063.65;;;18.76;100.00
49645;BME280;36494;50.730;-1.932;2023-09-08T03:50:56;101062.64;;;18.76;100.00
49645;BME280;36494;50.730;-1.932;2023-09-08T03:53:21;101066.91;;;18.75;100.00
49645;BME280;36494;50.730;-1.932;2023-09-08T03:55:47;101070.16;;;18.74;100.00
49645;BME280;36494;50.730;-1.932;2023-09-08T03:58:13;101067.21;;;18.73;100.00
49645;BME280;36494;50.730;-1.932;2023-09-08T04:00:38;101066.30;;;18.73;100.00
49645;BME280;36494;50.730;-1.932;2023-09-08T04:03:04;101056.80;;;18.71;100.00
49645;BME280;36494;50.730;-1.932;2023-09-08T04:05:30;101050.82;;;18.71;100.00
49645;BME280;36494;50.730;-1.932;2023-09-08T04:07:55;101049.50;;;18.69;100.00
49645;BME280;36494;50.730;-1.932;2023-09-08T04:10:20;101050.43;;;18.69;100.00
49645;BME280;36494;50.730;-1.932;2023-09-08T04:12:46;101055.07;;;18.68;100.00
49645;BME280;36494;50.730;-1.932;2023-09-08T04:15:11;101058.59;;;18.67;100.00
49645;BME280;36494;50.730;-1.932;2023-09-08T04:17:37;101060.60;;;18.66;100.00
49645;BME280;36494;50.730;-1.932;2023-09-08T04:20:02;101061.41;;;18.65;100.00
49645;BME280;36494;50.730;-1.932;2023-09-08T04:22:27;101062.80;;;18.65;100.00
49645;BME280;36494;50.730;-1.932;2023-09-08T04:24:52;101064.24;;;18.64;100.00
49645;BME280;36494;50.730;-1.932;2023-09-08T04:27:18;101067.53;;;18.64;100.00
49645;BME280;36494;50.730;-1.932;2023-09-08T04:29:43;101062.65;;;18.63;100.00
49645;BME280;36494;50.730;-1.932;2023-09-08T04:32:09;101058.03;;;18.62;100.00
49645;BME280;36494;50.730;-1.932;2023-09-08T04:34:36;101055.39;;;18.61;100.00
49645;BME280;36494;50.730;-1.932;2023-09-08T04:37:00;101057.80;;;18.61;100.00
49645;BME280;36494;50.730;-1.932;2023-09-08T04:39:25;101060.91;;;18.60;100.00
49645;BME280;36494;50.730;-1.932;2023-09-08T04:41:50;101065.48;;;18.60;100.00
49645;BME280;36494;50.730;-1.932;2023-09-08T04:44:16;101069.64;;;18.59;100.00
49645;BME280;36494;50.730;-1.932;2023-09-08T04:46:41;101075.40;;;18.58;100.00
49645;BME280;36494;50.730;-1.932;2023-09-08T04:49:07;101077.69;;;18.57;100.00
49645;BME280;36494;50.730;-1.932;2023-09-08T04:51:33;101075.04;;;18.57;100.00
49645;BME280;36494;50.730;-1.932;2023-09-08T04:53:58;101072.00;;;18.56;100.00
49645;BME280;36494;50.730;-1.932;2023-09-08T04:56:23;101069.83;;;18.55;100.00
49645;BME280;36494;50.730;-1.932;2023-09-08T04:58:49;101067.44;;;18.54;100.00
49645;BME280;36494;50.730;-1.932;2023-09-08T05:01:14;101068.22;;;18.53;100.00
49645;BME280;36494;50.730;-1.932;2023-09-08T05:03:40;101068.50;;;18.53;100.00
49645;BME280;36494;50.730;-1.932;2023-09-08T05:06:05;101067.85;;;18.52;100.00
49645;BME280;36494;50.730;-1.932;2023-09-08T05:08:31;101063.34;;;18.52;100.00
49645;BME280;36494;50.730;-1.932;2023-09-08T05:10:56;101057.37;;;18.51;100.00
49645;BME280;36494;50.730;-1.932;2023-09-08T05:13:22;101055.91;;;18.51;100.00
49645;BME280;36494;50.730;-1.932;2023-09-08T05:15:48;101056.31;;;18.50;100.00
49645;BME280;36494;50.730;-1.932;2023-09-08T05:18:13;101055.00;;;18.50;100.00
49645;BME280;36494;50.730;-1.932;2023-09-08T05:20:38;101054.50;;;18.50;100.00
49645;BME280;36494;50.730;-1.932;2023-09-08T05:23:04;101057.68;;;18.49;100.00
49645;BME280;36494;50.730;-1.932;2023-09-08T05:25:29;101059.47;;;18.49;100.00
49645;BME280;36494;50.730;-1.932;2023-09-08T05:27:54;101062.85;;;18.49;100.00
49645;BME280;36494;50.730;-1.932;2023-09-08T05:30:20;101062.99;;;18.49;100.00
49645;BME280;36494;50.730;-1.932;2023-09-08T05:32:45;101063.49;;;18.49;100.00
49645;BME280;36494;50.730;-1.932;2023-09-08T05:35:11;101068.19;;;18.48;100.00
49645;BME280;36494;50.730;-1.932;2023-09-08T05:37:36;101075.06;;;18.48;100.00
49645;BME280;36494;50.730;-1.932;2023-09-08T05:40:01;101078.20;;;18.49;100.00
49645;BME280;36494;50.730;-1.932;2023-09-08T05:42:26;101081.34;;;18.49;100.00
49645;BME280;36494;50.730;-1.932;2023-09-08T05:44:52;101085.87;;;18.49;100.00
49645;BME280;36494;50.730;-1.932;2023-09-08T05:47:18;101095.12;;;18.49;100.00
49645;BME280;36494;50.730;-1.932;2023-09-08T05:49:43;101100.45;;;18.50;100.00
49645;BME280;36494;50.730;-1.932;2023-09-08T05:52:09;101103.27;;;18.51;100.00
49645;BME280;36494;50.730;-1.932;2023-09-08T05:54:34;101108.15;;;18.53;100.00
49645;BME280;36494;50.730;-1.932;2023-09-08T05:57:00;101110.35;;;18.54;100.00
49645;BME280;36494;50.730;-1.932;2023-09-08T05:59:25;101111.25;;;18.55;100.00
49645;BME280;36494;50.730;-1.932;2023-09-08T06:01:50;101115.42;;;18.58;100.00
49645;BME280;36494;50.730;-1.932;2023-09-08T06:04:16;101123.70;;;18.61;100.00
49645;BME280;36494;50.730;-1.932;2023-09-08T06:06:41;101124.16;;;18.62;100.00
49645;BME280;36494;50.730;-1.932;2023-09-08T06:09:06;101121.30;;;18.64;100.00
49645;BME280;36494;50.730;-1.932;2023-09-08T06:11:32;101115.04;;;18.67;100.00
49645;BME280;36494;50.730;-1.932;2023-09-08T06:13:57;101106.53;;;18.70;100.00
49645;BME280;36494;50.730;-1.932;2023-09-08T06:16:22;101101.45;;;18.73;100.00
49645;BME280;36494;50.730;-1.932;2023-09-08T06:18:48;101099.21;;;18.75;100.00
49645;BME280;36494;50.730;-1.932;2023-09-08T06:21:13;101098.20;;;18.78;100.00
49645;BME280;36494;50.730;-1.932;2023-09-08T06:23:39;101098.89;;;18.80;100.00
49645;BME280;36494;50.730;-1.932;2023-09-08T06:26:04;101101.87;;;18.83;100.00
49645;BME280;36494;50.730;-1.932;2023-09-08T06:28:29;101107.39;;;18.85;100.00
49645;BME280;36494;50.730;-1.932;2023-09-08T06:30:55;101110.06;;;18.88;100.00
49645;BME280;36494;50.730;-1.932;2023-09-08T06:33:21;101109.65;;;18.91;100.00
49645;BME280;36494;50.730;-1.932;2023-09-08T06:35:46;101113.85;;;18.94;100.00
49645;BME280;36494;50.730;-1.932;2023-09-08T06:38:11;101114.53;;;18.96;100.00
49645;BME280;36494;50.730;-1.932;2023-09-08T06:40:36;101116.76;;;18.99;100.00
49645;BME280;36494;50.730;-1.932;2023-09-08T06:43:01;101115.91;;;19.02;100.00
49645;BME280;36494;50.730;-1.932;2023-09-08T06:45:27;101121.23;;;19.06;100.00
49645;BME280;36494;50.730;-1.932;2023-09-08T06:47:52;101125.08;;;19.08;100.00
49645;BME280;36494;50.730;-1.932;2023-09-08T06:50:18;101128.02;;;19.11;100.00
49645;BME280;36494;50.730;-1.932;2023-09-08T06:52:43;101131.04;;;19.14;100.00
49645;BME280;36494;50.730;-1.932;2023-09-08T06:55:08;101131.15;;;19.19;100.00
49645;BME280;36494;50.730;-1.932;2023-09-08T06:57:34;101125.74;;;19.22;100.00
49645;BME280;36494;50.730;-1.932;2023-09-08T06:59:59;101117.05;;;19.26;100.00
49645;BME280;36494;50.730;-1.932;2023-09-08T07:02:24;101113.23;;;19.30;100.00
49645;BME280;36494;50.730;-1.932;2023-09-08T07:04:50;101118.20;;;19.33;100.00
49645;BME280;36494;50.730;-1.932;2023-09-08T07:07:15;101128.10;;;19.38;100.00
49645;BME280;36494;50.730;-1.932;2023-09-08T07:09:40;101137.90;;;19.35;100.00
49645;BME280;36494;50.730;-1.932;2023-09-08T07:12:06;101142.16;;;19.38;100.00
49645;BME280;36494;50.730;-1.932;2023-09-08T07:14:31;101149.11;;;19.42;100.00
49645;BME280;36494;50.730;-1.932;2023-09-08T07:16:57;101151.36;;;19.45;100.00
49645;BME280;36494;50.730;-1.932;2023-09-08T07:19:22;101147.76;;;19.49;100.00
49645;BME280;36494;50.730;-1.932;2023-09-08T07:21:48;101142.13;;;19.55;100.00
49645;BME280;36494;50.730;-1.932;2023-09-08T07:24:13;101139.25;;;19.58;100.00
49645;BME280;36494;50.730;-1.932;2023-09-08T07:26:38;101141.60;;;19.62;100.00
49645;BME280;36494;50.730;-1.932;2023-09-08T07:29:04;101139.47;;;19.67;100.00
49645;BME280;36494;50.730;-1.932;2023-09-08T07:31:29;101137.44;;;19.72;100.00
49645;BME280;36494;50.730;-1.932;2023-09-08T07:33:54;101137.25;;;19.77;100.00
49645;BME280;36494;50.730;-1.932;2023-09-08T07:36:19;101141.70;;;19.80;100.00
49645;BME280;36494;50.730;-1.932;2023-09-08T07:38:45;101145.36;;;19.83;100.00
49645;BME280;36494;50.730;-1.932;2023-09-08T07:41:10;101145.47;;;19.87;100.00
49645;BME280;36494;50.730;-1.932;2023-09-08T07:43:35;101142.87;;;19.92;100.00
49645;BME280;36494;50.730;-1.932;2023-09-08T07:46:00;101146.45;;;19.96;100.00
49645;BME280;36494;50.730;-1.932;2023-09-08T07:48:26;101153.43;;;19.99;100.00
49645;BME280;36494;50.730;-1.932;2023-09-08T07:50:51;101155.06;;;20.04;100.00
49645;BME280;36494;50.730;-1.932;2023-09-08T07:53:16;101154.73;;;20.08;100.00
49645;BME280;36494;50.730;-1.932;2023-09-08T07:55:42;101151.36;;;20.10;100.00
49645;BME280;36494;50.730;-1.932;2023-09-08T07:58:08;101153.97;;;20.15;100.00
49645;BME280;36494;50.730;-1.932;2023-09-08T08:00:33;101157.66;;;20.18;100.00
49645;BME280;36494;50.730;-1.932;2023-09-08T08:02:58;101161.90;;;20.25;100.00
49645;BME280;36494;50.730;-1.932;2023-09-08T08:05:25;101156.41;;;20.30;100.00
49645;BME280;36494;50.730;-1.932;2023-09-08T08:07:49;101150.72;;;20.37;100.00
49645;BME280;36494;50.730;-1.932;2023-09-08T08:10:14;101151.45;;;20.45;100.00
49645;BME280;36494;50.730;-1.932;2023-09-08T08:12:41;101153.59;;;20.49;100.00
49645;BME280;36494;50.730;-1.932;2023-09-08T08:15:07;101154.63;;;20.56;100.00
49645;BME280;36494;50.730;-1.932;2023-09-08T08:17:31;101153.75;;;20.63;100.00
49645;BME280;36494;50.730;-1.932;2023-09-08T08:19:57;101156.96;;;20.71;100.00
49645;BME280;36494;50.730;-1.932;2023-09-08T08:22:23;101155.90;;;20.80;100.00
49645;BME280;36494;50.730;-1.932;2023-09-08T08:24:48;101156.70;;;20.87;100.00
49645;BME280;36494;50.730;-1.932;2023-09-08T08:27:14;101157.15;;;20.93;100.00
49645;BME280;36494;50.730;-1.932;2023-09-08T08:29:39;101158.08;;;21.00;100.00
49645;BME280;36494;50.730;-1.932;2023-09-08T08:32:04;101162.31;;;21.08;100.00
49645;BME280;36494;50.730;-1.932;2023-09-08T08:34:30;101165.11;;;21.15;100.00
49645;BME280;36494;50.730;-1.932;2023-09-08T08:36:55;101170.69;;;21.24;100.00
49645;BME280;36494;50.730;-1.932;2023-09-08T08:39:21;101172.34;;;21.31;100.00
49645;BME280;36494;50.730;-1.932;2023-09-08T08:41:47;101172.33;;;21.40;100.00
49645;BME280;36494;50.730;-1.932;2023-09-08T08:44:13;101171.05;;;21.50;100.00
49645;BME280;36494;50.730;-1.932;2023-09-08T08:46:40;101173.25;;;21.52;100.00
49645;BME280;36494;50.730;-1.932;2023-09-08T08:49:04;101178.81;;;21.60;100.00
49645;BME280;36494;50.730;-1.932;2023-09-08T08:51:30;101179.85;;;21.68;100.00
49645;BME280;36494;50.730;-1.932;2023-09-08T08:53:54;101181.35;;;21.75;100.00
49645;BME280;36494;50.730;-1.932;2023-09-08T08:56:20;101180.70;;;21.83;100.00
49645;BME280;36494;50.730;-1.932;2023-09-08T08:58:46;101182.50;;;21.87;100.00
49645;BME280;36494;50.730;-1.932;2023-09-08T09:01:12;101184.89;;;21.93;100.00
49645;BME280;36494;50.730;-1.932;2023-09-08T09:03:38;101185.03;;;22.00;100.00
49645;BME280;36494;50.730;-1.932;2023-09-08T09:06:02;101187.62;;;22.01;100.00
49645;BME280;36494;50.730;-1.932;2023-09-08T09:08:28;101186.61;;;21.98;100.00
49645;BME280;36494;50.730;-1.932;2023-09-08T09:10:53;101183.69;;;22.03;100.00
49645;BME280;36494;50.730;-1.932;2023-09-08T09:13:19;101181.07;;;22.12;100.00
49645;BME280;36494;50.730;-1.932;2023-09-08T09:15:44;101174.43;;;22.16;100.00
49645;BME280;36494;50.730;-1.932;2023-09-08T09:18:10;101170.45;;;22.22;100.00
49645;BME280;36494;50.730;-1.932;2023-09-08T09:20:35;101168.38;;;22.29;100.00
49645;BME280;36494;50.730;-1.932;2023-09-08T09:23:01;101168.04;;;22.38;100.00
49645;BME280;36494;50.730;-1.932;2023-09-08T09:25:28;101166.57;;;22.46;100.00
49645;BME280;36494;50.730;-1.932;2023-09-08T09:27:52;101164.44;;;22.54;100.00
49645;BME280;36494;50.730;-1.932;2023-09-08T09:30:18;101162.76;;;22.62;100.00
49645;BME280;36494;50.730;-1.932;2023-09-08T09:32:44;101164.63;;;22.71;100.00
49645;BME280;36494;50.730;-1.932;2023-09-08T09:35:10;101160.65;;;22.79;100.00
49645;BME280;36494;50.730;-1.932;2023-09-08T09:37:35;101155.92;;;22.85;100.00
49645;BME280;36494;50.730;-1.932;2023-09-08T09:40:00;101156.23;;;22.90;100.00
49645;BME280;36494;50.730;-1.932;2023-09-08T09:42:28;101157.88;;;22.98;100.00
49645;BME280;36494;50.730;-1.932;2023-09-08T09:44:51;101162.01;;;23.02;100.00
49645;BME280;36494;50.730;-1.932;2023-09-08T09:47:17;101163.93;;;23.10;100.00
49645;BME280;36494;50.730;-1.932;2023-09-08T09:49:43;101162.13;;;23.17;100.00
49645;BME280;36494;50.730;-1.932;2023-09-08T09:52:08;101161.25;;;23.21;100.00
49645;BME280;36494;50.730;-1.932;2023-09-08T09:54:34;101166.64;;;23.26;100.00
49645;BME280;36494;50.730;-1.932;2023-09-08T09:57:00;101170.80;;;23.27;100.00
49645;BME280;36494;50.730;-1.932;2023-09-08T09:59:25;101173.85;;;23.28;100.00
49645;BME280;36494;50.730;-1.932;2023-09-08T10:01:50;101177.68;;;23.29;100.00
49645;BME280;36494;50.730;-1.932;2023-09-08T10:04:16;101181.89;;;23.40;100.00
49645;BME280;36494;50.730;-1.932;2023-09-08T10:06:41;101181.51;;;23.41;100.00
49645;BME280;36494;50.730;-1.932;2023-09-08T10:09:06;101180.61;;;23.41;100.00
49645;BME280;36494;50.730;-1.932;2023-09-08T10:11:37;101175.74;;;23.38;100.00
49645;BME280;36494;50.730;-1.932;2023-09-08T10:13:58;101173.26;;;23.39;100.00
49645;BME280;36494;50.730;-1.932;2023-09-08T10:16:23;101174.04;;;23.50;100.00
49645;BME280;36494;50.730;-1.932;2023-09-08T10:18:49;101178.92;;;23.45;100.00
49645;BME280;36494;50.730;-1.932;2023-09-08T10:21:16;101180.19;;;23.42;100.00
49645;BME280;36494;50.730;-1.932;2023-09-08T10:23:40;101181.60;;;23.45;100.00
49645;BME280;36494;50.730;-1.932;2023-09-08T10:26:11;101183.46;;;23.52;100.00
49645;BME280;36494;50.730;-1.932;2023-09-08T10:28:29;101180.95;;;23.60;100.00
49645;BME280;36494;50.730;-1.932;2023-09-08T10:30:55;101182.08;;;23.81;100.00
49645;BME280;36494;50.730;-1.932;2023-09-08T10:33:21;101179.55;;;23.87;100.00
49645;BME280;36494;50.730;-1.932;2023-09-08T10:35:46;101179.98;;;24.11;100.00
49645;BME280;36494;50.730;-1.932;2023-09-08T10:38:22;101175.93;;;24.21;100.00
49645;BME280;36494;50.730;-1.932;2023-09-08T10:40:37;101171.63;;;24.38;100.00
49645;BME280;36494;50.730;-1.932;2023-09-08T10:43:07;101171.67;;;24.49;100.00
49645;BME280;36494;50.730;-1.932;2023-09-08T10:45:28;101174.25;;;24.52;100.00
49645;BME280;36494;50.730;-1.932;2023-09-08T10:47:55;101174.97;;;24.46;100.00
49645;BME280;36494;50.730;-1.932;2023-09-08T10:50:19;101175.60;;;24.42;100.00
49645;BME280;36494;50.730;-1.932;2023-09-08T10:52:45;101174.36;;;24.52;100.00
49645;BME280;36494;50.730;-1.932;2023-09-08T10:55:11;101171.42;;;24.59;100.00
49645;BME280;36494;50.730;-1.932;2023-09-08T10:57:35;101172.48;;;24.42;100.00
49645;BME280;36494;50.730;-1.932;2023-09-08T11:00:03;101173.81;;;24.62;100.00
49645;BME280;36494;50.730;-1.932;2023-09-08T11:02:33;101171.83;;;24.75;100.00
49645;BME280;36494;50.730;-1.932;2023-09-08T11:04:53;101166.81;;;24.86;100.00
49645;BME280;36494;50.730;-1.932;2023-09-08T11:07:17;101163.74;;;24.87;100.00
49645;BME280;36494;50.730;-1.932;2023-09-08T11:09:42;101168.21;;;25.08;100.00
49645;BME280;36494;50.730;-1.932;2023-09-08T11:12:08;101166.41;;;25.21;100.00
49645;BME280;36494;50.730;-1.932;2023-09-08T11:14:33;101167.14;;;25.23;100.00
49645;BME280;36494;50.730;-1.932;2023-09-08T11:16:58;101167.02;;;25.19;100.00
49645;BME280;36494;50.730;-1.932;2023-09-08T11:19:23;101166.36;;;25.33;100.00
49645;BME280;36494;50.730;-1.932;2023-09-08T11:21:48;101169.24;;;25.36;100.00
49645;BME280;36494;50.730;-1.932;2023-09-08T11:24:14;101172.37;;;25.39;100.00
49645;BME280;36494;50.730;-1.932;2023-09-08T11:26:39;101174.88;;;25.47;100.00
49645;BME280;36494;50.730;-1.932;2023-09-08T11:29:05;101176.18;;;25.34;100.00
49645;BME280;36494;50.730;-1.932;2023-09-08T11:31:29;101173.37;;;25.29;100.00
49645;BME280;36494;50.730;-1.932;2023-09-08T11:33:55;101170.77;;;25.56;100.00
49645;BME280;36494;50.730;-1.932;2023-09-08T11:36:20;101169.96;;;25.71;100.00
49645;BME280;36494;50.730;-1.932;2023-09-08T11:38:45;101169.38;;;26.02;100.00
49645;BME280;36494;50.730;-1.932;2023-09-08T11:41:10;101165.50;;;25.93;100.00
49645;BME280;36494;50.730;-1.932;2023-09-08T11:43:36;101167.06;;;26.12;100.00
49645;BME280;36494;50.730;-1.932;2023-09-08T11:46:01;101160.77;;;26.32;100.00
49645;BME280;36494;50.730;-1.932;2023-09-08T11:48:26;101158.24;;;26.52;100.00
49645;BME280;36494;50.730;-1.932;2023-09-08T11:50:53;101155.51;;;26.84;100.00
49645;BME280;36494;50.730;-1.932;2023-09-08T11:53:19;101158.06;;;27.08;100.00
49645;BME280;36494;50.730;-1.932;2023-09-08T11:55:42;101154.00;;;26.95;100.00
49645;BME280;36494;50.730;-1.932;2023-09-08T11:58:07;101153.69;;;27.15;100.00
49645;BME280;36494;50.730;-1.932;2023-09-08T12:00:32;101152.26;;;27.25;100.00
49645;BME280;36494;50.730;-1.932;2023-09-08T12:03:11;101150.43;;;27.37;100.00
49645;BME280;36494;50.730;-1.932;2023-09-08T12:05:24;101151.01;;;27.47;100.00
49645;BME280;36494;50.730;-1.932;2023-09-08T12:07:50;101151.88;;;27.59;100.00
49645;BME280;36494;50.730;-1.932;2023-09-08T12:10:14;101150.90;;;27.54;100.00
49645;BME280;36494;50.730;-1.932;2023-09-08T12:12:43;101149.39;;;27.45;100.00
49645;BME280;36494;50.730;-1.932;2023-09-08T12:15:05;101146.79;;;27.69;100.00
49645;BME280;36494;50.730;-1.932;2023-09-08T12:17:29;101144.35;;;27.42;100.00
49645;BME280;36494;50.730;-1.932;2023-09-08T12:19:54;101141.44;;;27.48;100.00